Plancius — PBQK — position and weather

sailwx.info

Track history (hours):
 
Tides and Currents Weather Stations Pressure Air Temp Water Temp Dewpoint Dewpoint Depression Visibility Wind Speed Wind Dir Waves Ship Positions

Plancius

Last reported at 2018-Dec-11 07:00 UTC. Time now 2018-Dec-11 08:01 UTC.
Position S 54°12' W 036°12'.

Length 90 m; draft 5.1 m.

Type: Passenger vessel. MMSI: 246573000.

Barometer 999.6 mb

Date/timePositionNaut miles runAvg speedWind from/ knotsBaromVisibWave heightAir tempDewpointWater temp
2018-Dec-11 07:00S 54°12' W 036°12'7 6.9 999.6
2018-Dec-11 06:00S 54°18' W 036°06'7 6.9 999.3
2018-Dec-11 05:00S 54°12' W 036°12'6 6.0 998.6
2018-Dec-11 04:00S 54°18' W 036°12'6 6.0 999.5
2018-Dec-11 03:00S 54°12' W 036°12'7 6.9 999.3
2018-Dec-11 02:00S 54°18' W 036°06'9 9.2 999.4
2018-Dec-11 01:00S 54°12' W 036°18'9 9.2 999.2
2018-Dec-11 00:00S 54°18' W 036°30'0 0.0 999.1
2018-Dec-10 23:00S 54°18' W 036°30'0 0.0 998.5
2018-Dec-10 22:00S 54°18' W 036°30'0 0.0 998.1
2018-Dec-10 21:00S 54°18' W 036°30'0 0.0 997.9
2018-Dec-10 20:00S 54°18' W 036°30'0 0.0 997.5
2018-Dec-10 19:00S 54°18' W 036°30'0 0.0 996.9
2018-Dec-10 18:00S 54°18' W 036°30'4 1.8 996.8
2018-Dec-10 16:00S 54°18' W 036°24'7 7.0 996.7
2018-Dec-10 15:00S 54°18' W 036°12'7 6.9 998.1
2018-Dec-10 14:00S 54°24' W 036°06'3 3.5 997.5
2018-Dec-10 13:00S 54°24' W 036°12'0 0.0 997.3
2018-Dec-10 12:00S 54°24' W 036°12'0 0.0 996.7
2018-Dec-10 11:00S 54°24' W 036°12'0 0.0 996.5
2018-Dec-10 10:00S 54°24' W 036°12'0 0.0 995.5
2018-Dec-10 09:00S 54°24' W 036°12'0 0.0 994.7
2018-Dec-10 08:00S 54°24' W 036°12'7 7.0 993.7
2018-Dec-10 07:00S 54°24' W 036°00'0 0.0 992.9
2018-Dec-10 04:00S 54°24' W 036°00'3 3.5 989.7
2018-Dec-10 03:00S 54°24' W 035°54'7 6.9 989.2
2018-Dec-10 02:00S 54°18' W 036°00'9 9.2 988.9
2018-Dec-10 01:00S 54°12' W 036°12'4 3.5 990.1
2018-Dec-10 00:00S 54°12' W 036°18'9 9.2 989.8
2018-Dec-09 23:00S 54°06' W 036°30'1110.6 990.0
2018-Dec-09 22:00S 54°06' W 036°48'6 6.0 990.1
2018-Dec-09 21:00S 54°12' W 036°48'0 0.0 989.9
2018-Dec-09 19:00S 54°12' W 036°48'0 0.0 988.8
2018-Dec-09 18:00S 54°12' W 036°48'1312.5 988.6
2018-Dec-09 17:00S 54°00' W 036°54'7 7.1 989.2
2018-Dec-09 16:00S 54°00' W 037°06'9 9.3 988.6
2018-Dec-09 15:00S 54°06' W 037°18'0 0.0 988.4
2018-Dec-09 14:00S 54°06' W 037°18'0 0.0 987.4
2018-Dec-09 13:00S 54°06' W 037°18'0 0.0 987.1
2018-Dec-09 12:00S 54°06' W 037°18'19 4.6 986.9
2018-Dec-09 08:00S 53°54' W 037°42'1212.2 986.3
2018-Dec-09 07:00S 53°48' W 038°00'1110.6 986.5
2018-Dec-09 06:00S 53°48' W 038°18'1515.4 986.2
2018-Dec-09 05:00S 53°42' W 038°42'9 9.3 986.4
2018-Dec-09 04:00S 53°36' W 038°54'1212.3 986.4
2018-Dec-09 03:00S 53°30' W 039°12'1212.3 986.8
2018-Dec-09 02:00S 53°24' W 039°30'1414.3 986.8
2018-Dec-09 01:00S 53°24' W 039°54'1212.3 987.6
2018-Dec-09 00:00S 53°18' W 040°12'1110.8 988.0
2018-Dec-08 23:00S 53°18' W 040°30'1212.3 987.5
2018-Dec-08 22:00S 53°12' W 040°48'2210.8 987.7
2018-Dec-08 20:00S 53°12' W 041°24'1212.4 986.9
2018-Dec-08 19:00S 53°06' W 041°42'4711.8 987.0
2018-Dec-08 15:00S 53°00' W 043°00'1615.7 987.5
2018-Dec-08 14:00S 52°54' W 043°24'1110.9 988.1
2018-Dec-08 13:00S 52°54' W 043°42'1212.4 988.4
2018-Dec-08 12:00S 52°48' W 044°00'1110.9 988.9
2018-Dec-08 11:00S 52°48' W 044°18'1615.7 989.3
2018-Dec-08 10:00S 52°42' W 044°42'7 7.3 989.6
2018-Dec-08 09:00S 52°42' W 044°54'1615.7 989.4
2018-Dec-08 08:00S 52°36' W 045°18'1110.9 989.1
2018-Dec-08 07:00S 52°36' W 045°36'1212.5 989.5
2018-Dec-08 06:00S 52°30' W 045°54'1111.0 989.5
2018-Dec-08 05:00S 52°30' W 046°12'1111.0 989.4
2018-Dec-08 04:00S 52°30' W 046°30'1111.0 989.5
2018-Dec-08 03:00S 52°30' W 046°48'1111.0 989.6
2018-Dec-08 02:00S 52°30' W 047°06'1111.0 989.8
2018-Dec-08 01:00S 52°30' W 047°24'1514.6 989.7
2018-Dec-08 00:00S 52°30' W 047°48'1111.0 990.1
2018-Dec-07 23:00S 52°30' W 048°06'1111.0 990.2
2018-Dec-07 22:00S 52°30' W 048°24'1514.6 989.9
2018-Dec-07 21:00S 52°30' W 048°48'1111.0 989.6
2018-Dec-07 20:00S 52°30' W 049°06'1111.0 989.9
2018-Dec-07 19:00S 52°30' W 049°24'1514.6 990.3
2018-Dec-07 18:00S 52°30' W 049°48'1111.0 990.5
2018-Dec-07 17:00S 52°30' W 050°06'1111.0 990.6
2018-Dec-07 16:00S 52°30' W 050°24'1312.5 991.6
2018-Dec-07 15:00S 52°24' W 050°42'1111.0 992.3
2018-Dec-07 14:00S 52°24' W 051°00'1111.0 992.5
2018-Dec-07 13:00S 52°24' W 051°18'1312.5 993.2
2018-Dec-07 12:00S 52°18' W 051°36'1111.0 994.4
2018-Dec-07 11:00S 52°18' W 051°54'1111.0 995.4
2018-Dec-07 10:00S 52°18' W 052°12'1615.9 996.1
2018-Dec-07 09:00S 52°12' W 052°36'1111.0 996.3
2018-Dec-07 08:00S 52°12' W 052°54'7 7.4 996.4
2018-Dec-07 07:00S 52°12' W 053°06'1312.6 996.5
2018-Dec-07 06:00S 52°06' W 053°24'1514.7 996.6
2018-Dec-07 05:00S 52°06' W 053°48'1111.1 997.8
2018-Dec-07 04:00S 52°06' W 054°06'1312.6 999.4
2018-Dec-07 03:00S 52°00' W 054°24'2211.1 1001.1
2018-Dec-07 01:00S 52°00' W 055°00'1312.6 1004.4
2018-Dec-07 00:00S 51°54' W 055°18'1111.1 1006.0
2018-Dec-06 23:00S 51°54' W 055°36'1514.8 1007.1
2018-Dec-06 22:00S 51°54' W 056°00'1312.6 1008.4
2018-Dec-06 21:00S 51°48' W 056°18'1111.1 1009.5
2018-Dec-06 20:00S 51°48' W 056°36'1616.0 1011.0
2018-Dec-06 19:00S 51°42' W 057°00'1111.2 1012.1
2018-Dec-06 18:00S 51°42' W 057°18'1111.2 1013.3
2018-Dec-06 17:00S 51°42' W 057°36'1111.2 1014.3
2018-Dec-06 16:00S 51°42' W 057°54'0 0.0 1014.8
2018-Dec-06 15:00S 51°42' W 057°54'0 0.0 1015.6
2018-Dec-06 14:00S 51°42' W 057°54'0 0.0 1017.0
2018-Dec-06 13:00S 51°42' W 057°54'0 0.0 1017.5
2018-Dec-06 12:00S 51°42' W 057°54'0 0.0 1018.8
2018-Dec-06 11:00S 51°42' W 057°54'7 7.4 1019.4
2018-Dec-06 10:00S 51°42' W 057°42'1212.0 1020.5
2018-Dec-06 09:00S 51°30' W 057°42'6 6.0 1021.3
2018-Dec-06 08:00S 51°24' W 057°42'10 9.6 1021.3
2018-Dec-06 07:00S 51°18' W 057°54'8 7.5 1021.2
2018-Dec-06 06:00S 51°18' W 058°06'1111.3 1021.2
2018-Dec-06 05:00S 51°18' W 058°24'1312.8 1021.6
2018-Dec-06 04:00S 51°12' W 058°42'1111.3 1022.6
2018-Dec-06 03:00S 51°12' W 059°00'1111.3 1023.1
2018-Dec-06 02:00S 51°12' W 059°18'1111.3 1023.5
2018-Dec-06 01:00S 51°12' W 059°36'1515.0 1023.6
2018-Dec-06 00:00S 51°12' W 060°00'1111.3 1023.4
2018-Dec-05 23:00S 51°12' W 060°18'6 6.0 1023.3
2018-Dec-05 22:00S 51°18' W 060°18'0 0.0 1022.6
2018-Dec-05 21:00S 51°18' W 060°18'0 0.0 1022.3
2018-Dec-05 20:00S 51°18' W 060°18'0 0.0 1022.0
2018-Dec-05 19:00S 51°18' W 060°18'0 0.0 1021.6
2018-Dec-05 18:00S 51°18' W 060°18'0 0.0 1021.1
2018-Dec-05 17:00S 51°18' W 060°18'1111.3 1021.7
2018-Dec-05 16:00S 51°18' W 060°36'0 0.0 1021.9
2018-Dec-05 15:00S 51°18' W 060°36'0 0.0 1022.5
2018-Dec-05 14:00S 51°18' W 060°36'0 0.0 1022.7
2018-Dec-05 13:00S 51°18' W 060°36'0 0.0 1022.5
2018-Dec-05 12:00S 51°18' W 060°36'0 0.0 1022.9
2018-Dec-05 11:00S 51°18' W 060°36'7 7.1 1023.1
2018-Dec-05 10:00S 51°24' W 060°42'13 6.4 1023.0
2018-Dec-05 08:00S 51°30' W 061°00'0 0.0 1022.6
2018-Dec-05 07:00S 51°30' W 061°00'4 3.7 1022.2
2018-Dec-05 06:00S 51°30' W 061°06'10 9.6 1022.1
2018-Dec-05 05:00S 51°36' W 061°18'10 9.6 1021.8
2018-Dec-05 04:00S 51°42' W 061°30'1312.6 1021.7
2018-Dec-05 03:00S 51°54' W 061°36'7 7.0 1021.4
2018-Dec-05 02:00S 52°00' W 061°42'10 9.5 1021.2
2018-Dec-05 01:00S 52°06' W 061°54'1414.1 1020.3
2018-Dec-05 00:00S 52°18' W 062°06'7 7.0 1019.4
2018-Dec-04 23:00S 52°24' W 062°12'7 7.0 1019.5
2018-Dec-04 22:00S 52°30' W 062°18'1414.0 1019.1
2018-Dec-04 21:00S 52°42' W 062°30'7 7.0 1018.2
2018-Dec-04 20:00S 52°48' W 062°36'9 9.4 1017.6
2018-Dec-04 19:00S 52°54' W 062°48'1414.0 1016.7
2018-Dec-04 18:00S 53°06' W 063°00'7 7.0 1015.9
2018-Dec-04 17:00S 53°12' W 063°06'1414.0 1015.2
2018-Dec-04 16:00S 53°24' W 063°18'9 9.3 1013.9
2018-Dec-04 15:00S 53°30' W 063°30'1312.5 1013.4
2018-Dec-04 14:00S 53°42' W 063°36'9 9.3 1012.3
2018-Dec-04 13:00S 53°48' W 063°48'1413.9 1010.9
2018-Dec-04 12:00S 54°00' W 064°00'9 9.3 1009.5
2018-Dec-04 11:00S 54°06' W 064°12'1413.9 1007.3
2018-Dec-04 10:00S 54°18' W 064°24'9 9.2 1005.8
2018-Dec-04 09:00S 54°24' W 064°36'1413.9 1003.3
2018-Dec-04 08:00S 54°36' W 064°48'1413.9 1001.1
2018-Dec-04 07:00S 54°48' W 065°00'1413.8 999.1
2018-Dec-04 06:00S 55°00' W 065°12'1413.8 997.6
2018-Dec-04 05:00S 55°00' W 065°36'1211.9 996.5
2018-Dec-04 04:00S 55°06' W 065°54'1413.7 995.8
2018-Dec-04 03:00S 55°06' W 066°18'1010.3 994.8
2018-Dec-04 02:00S 55°06' W 066°36'1211.9 994.6
2018-Dec-04 01:00S 55°00' W 066°54'1515.0 994.3
2018-Dec-04 00:00S 54°54' W 067°18'1010.4 994.1
2018-Dec-03 23:00S 54°54' W 067°36'1010.4 994.1
2018-Dec-03 22:00S 54°54' W 067°54'1515.1 994.4
2018-Dec-03 21:00S 54°48' W 068°18'0 0.0 995.0
2018-Dec-03 20:00S 54°48' W 068°18'0 0.0 996.6
2018-Dec-03 19:00S 54°48' W 068°18'0 0.0 996.5
2018-Dec-03 18:00S 54°48' W 068°18'0 0.0 996.9
2018-Dec-03 17:00S 54°48' W 068°18'0 0.0 997.2
2018-Dec-03 16:00S 54°48' W 068°18'0 0.0 998.6
2018-Dec-03 15:00S 54°48' W 068°18'0 0.0 1000.4
2018-Dec-03 14:00S 54°48' W 068°18'0 0.0 1001.9
2018-Dec-03 13:00S 54°48' W 068°18'   1003.4
Track history (hours):
 
Tides and Currents Weather Stations Pressure Air Temp Water Temp Dewpoint Dewpoint Depression Visibility Wind Speed Wind Dir Waves Ship Positions

Plancius

Last reported at 2018-Dec-11 07:00 UTC. Time now 2018-Dec-11 08:01 UTC.
Position S 54°12' W 036°12'.

Length 90 m; draft 5.1 m.

Type: Passenger vessel. MMSI: 246573000.

Barometer 999.6 mb

Date/timePositionNaut miles runAvg speedWind from/ knotsBaromVisibWave heightAir tempDewpointWater temp
2018-Dec-11 07:00S 54°12' W 036°12'7 6.9 999.6
2018-Dec-11 06:00S 54°18' W 036°06'7 6.9 999.3
2018-Dec-11 05:00S 54°12' W 036°12'6 6.0 998.6
2018-Dec-11 04:00S 54°18' W 036°12'6 6.0 999.5
2018-Dec-11 03:00S 54°12' W 036°12'7 6.9 999.3
2018-Dec-11 02:00S 54°18' W 036°06'9 9.2 999.4
2018-Dec-11 01:00S 54°12' W 036°18'9 9.2 999.2
2018-Dec-11 00:00S 54°18' W 036°30'0 0.0 999.1
2018-Dec-10 23:00S 54°18' W 036°30'0 0.0 998.5
2018-Dec-10 22:00S 54°18' W 036°30'0 0.0 998.1
2018-Dec-10 21:00S 54°18' W 036°30'0 0.0 997.9
2018-Dec-10 20:00S 54°18' W 036°30'0 0.0 997.5
2018-Dec-10 19:00S 54°18' W 036°30'0 0.0 996.9
2018-Dec-10 18:00S 54°18' W 036°30'4 1.8 996.8
2018-Dec-10 16:00S 54°18' W 036°24'7 7.0 996.7
2018-Dec-10 15:00S 54°18' W 036°12'7 6.9 998.1
2018-Dec-10 14:00S 54°24' W 036°06'3 3.5 997.5
2018-Dec-10 13:00S 54°24' W 036°12'0 0.0 997.3
2018-Dec-10 12:00S 54°24' W 036°12'0 0.0 996.7
2018-Dec-10 11:00S 54°24' W 036°12'0 0.0 996.5
2018-Dec-10 10:00S 54°24' W 036°12'0 0.0 995.5
2018-Dec-10 09:00S 54°24' W 036°12'0 0.0 994.7
2018-Dec-10 08:00S 54°24' W 036°12'7 7.0 993.7
2018-Dec-10 07:00S 54°24' W 036°00'0 0.0 992.9
2018-Dec-10 04:00S 54°24' W 036°00'3 3.5 989.7
2018-Dec-10 03:00S 54°24' W 035°54'7 6.9 989.2
2018-Dec-10 02:00S 54°18' W 036°00'9 9.2 988.9
2018-Dec-10 01:00S 54°12' W 036°12'4 3.5 990.1
2018-Dec-10 00:00S 54°12' W 036°18'9 9.2 989.8
2018-Dec-09 23:00S 54°06' W 036°30'1110.6 990.0
2018-Dec-09 22:00S 54°06' W 036°48'6 6.0 990.1
2018-Dec-09 21:00S 54°12' W 036°48'0 0.0 989.9
2018-Dec-09 19:00S 54°12' W 036°48'0 0.0 988.8
2018-Dec-09 18:00S 54°12' W 036°48'1312.5 988.6
2018-Dec-09 17:00S 54°00' W 036°54'7 7.1 989.2
2018-Dec-09 16:00S 54°00' W 037°06'9 9.3 988.6
2018-Dec-09 15:00S 54°06' W 037°18'0 0.0 988.4
2018-Dec-09 14:00S 54°06' W 037°18'0 0.0 987.4
2018-Dec-09 13:00S 54°06' W 037°18'0 0.0 987.1
2018-Dec-09 12:00S 54°06' W 037°18'19 4.6 986.9
2018-Dec-09 08:00S 53°54' W 037°42'1212.2 986.3
2018-Dec-09 07:00S 53°48' W 038°00'1110.6 986.5
2018-Dec-09 06:00S 53°48' W 038°18'1515.4 986.2
2018-Dec-09 05:00S 53°42' W 038°42'9 9.3 986.4
2018-Dec-09 04:00S 53°36' W 038°54'1212.3 986.4
2018-Dec-09 03:00S 53°30' W 039°12'1212.3 986.8
2018-Dec-09 02:00S 53°24' W 039°30'1414.3 986.8
2018-Dec-09 01:00S 53°24' W 039°54'1212.3 987.6
2018-Dec-09 00:00S 53°18' W 040°12'1110.8 988.0
2018-Dec-08 23:00S 53°18' W 040°30'1212.3 987.5
2018-Dec-08 22:00S 53°12' W 040°48'2210.8 987.7
2018-Dec-08 20:00S 53°12' W 041°24'1212.4 986.9
2018-Dec-08 19:00S 53°06' W 041°42'4711.8 987.0
2018-Dec-08 15:00S 53°00' W 043°00'1615.7 987.5
2018-Dec-08 14:00S 52°54' W 043°24'1110.9 988.1
2018-Dec-08 13:00S 52°54' W 043°42'1212.4 988.4
2018-Dec-08 12:00S 52°48' W 044°00'1110.9 988.9
2018-Dec-08 11:00S 52°48' W 044°18'1615.7 989.3
2018-Dec-08 10:00S 52°42' W 044°42'7 7.3 989.6
2018-Dec-08 09:00S 52°42' W 044°54'1615.7 989.4
2018-Dec-08 08:00S 52°36' W 045°18'1110.9 989.1
2018-Dec-08 07:00S 52°36' W 045°36'1212.5 989.5
2018-Dec-08 06:00S 52°30' W 045°54'1111.0 989.5
2018-Dec-08 05:00S 52°30' W 046°12'1111.0 989.4
2018-Dec-08 04:00S 52°30' W 046°30'1111.0 989.5
2018-Dec-08 03:00S 52°30' W 046°48'1111.0 989.6
2018-Dec-08 02:00S 52°30' W 047°06'1111.0 989.8
2018-Dec-08 01:00S 52°30' W 047°24'1514.6 989.7
2018-Dec-08 00:00S 52°30' W 047°48'1111.0 990.1
2018-Dec-07 23:00S 52°30' W 048°06'1111.0 990.2
2018-Dec-07 22:00S 52°30' W 048°24'1514.6 989.9
2018-Dec-07 21:00S 52°30' W 048°48'1111.0 989.6
2018-Dec-07 20:00S 52°30' W 049°06'1111.0 989.9
2018-Dec-07 19:00S 52°30' W 049°24'1514.6 990.3
2018-Dec-07 18:00S 52°30' W 049°48'1111.0 990.5
2018-Dec-07 17:00S 52°30' W 050°06'1111.0 990.6
2018-Dec-07 16:00S 52°30' W 050°24'1312.5 991.6
2018-Dec-07 15:00S 52°24' W 050°42'1111.0 992.3
2018-Dec-07 14:00S 52°24' W 051°00'1111.0 992.5
2018-Dec-07 13:00S 52°24' W 051°18'1312.5 993.2
2018-Dec-07 12:00S 52°18' W 051°36'1111.0 994.4
2018-Dec-07 11:00S 52°18' W 051°54'1111.0 995.4
2018-Dec-07 10:00S 52°18' W 052°12'1615.9 996.1
2018-Dec-07 09:00S 52°12' W 052°36'1111.0 996.3
2018-Dec-07 08:00S 52°12' W 052°54'7 7.4 996.4
2018-Dec-07 07:00S 52°12' W 053°06'1312.6 996.5
2018-Dec-07 06:00S 52°06' W 053°24'1514.7 996.6
2018-Dec-07 05:00S 52°06' W 053°48'1111.1 997.8
2018-Dec-07 04:00S 52°06' W 054°06'1312.6 999.4
2018-Dec-07 03:00S 52°00' W 054°24'2211.1 1001.1
2018-Dec-07 01:00S 52°00' W 055°00'1312.6 1004.4
2018-Dec-07 00:00S 51°54' W 055°18'1111.1 1006.0
2018-Dec-06 23:00S 51°54' W 055°36'1514.8 1007.1
2018-Dec-06 22:00S 51°54' W 056°00'1312.6 1008.4
2018-Dec-06 21:00S 51°48' W 056°18'1111.1 1009.5
2018-Dec-06 20:00S 51°48' W 056°36'1616.0 1011.0
2018-Dec-06 19:00S 51°42' W 057°00'1111.2 1012.1
2018-Dec-06 18:00S 51°42' W 057°18'1111.2 1013.3
2018-Dec-06 17:00S 51°42' W 057°36'1111.2 1014.3
2018-Dec-06 16:00S 51°42' W 057°54'0 0.0 1014.8
2018-Dec-06 15:00S 51°42' W 057°54'0 0.0 1015.6
2018-Dec-06 14:00S 51°42' W 057°54'0 0.0 1017.0
2018-Dec-06 13:00S 51°42' W 057°54'0 0.0 1017.5
2018-Dec-06 12:00S 51°42' W 057°54'0 0.0 1018.8
2018-Dec-06 11:00S 51°42' W 057°54'7 7.4 1019.4
2018-Dec-06 10:00S 51°42' W 057°42'1212.0 1020.5
2018-Dec-06 09:00S 51°30' W 057°42'6 6.0 1021.3
2018-Dec-06 08:00S 51°24' W 057°42'10 9.6 1021.3
2018-Dec-06 07:00S 51°18' W 057°54'8 7.5 1021.2
2018-Dec-06 06:00S 51°18' W 058°06'1111.3 1021.2
2018-Dec-06 05:00S 51°18' W 058°24'1312.8 1021.6
2018-Dec-06 04:00S 51°12' W 058°42'1111.3 1022.6
2018-Dec-06 03:00S 51°12' W 059°00'1111.3 1023.1
2018-Dec-06 02:00S 51°12' W 059°18'1111.3 1023.5
2018-Dec-06 01:00S 51°12' W 059°36'1515.0 1023.6
2018-Dec-06 00:00S 51°12' W 060°00'1111.3 1023.4
2018-Dec-05 23:00S 51°12' W 060°18'6 6.0 1023.3
2018-Dec-05 22:00S 51°18' W 060°18'0 0.0 1022.6
2018-Dec-05 21:00S 51°18' W 060°18'0 0.0 1022.3
2018-Dec-05 20:00S 51°18' W 060°18'0 0.0 1022.0
2018-Dec-05 19:00S 51°18' W 060°18'0 0.0 1021.6
2018-Dec-05 18:00S 51°18' W 060°18'0 0.0 1021.1
2018-Dec-05 17:00S 51°18' W 060°18'1111.3 1021.7
2018-Dec-05 16:00S 51°18' W 060°36'0 0.0 1021.9
2018-Dec-05 15:00S 51°18' W 060°36'0 0.0 1022.5
2018-Dec-05 14:00S 51°18' W 060°36'0 0.0 1022.7
2018-Dec-05 13:00S 51°18' W 060°36'0 0.0 1022.5
2018-Dec-05 12:00S 51°18' W 060°36'0 0.0 1022.9
2018-Dec-05 11:00S 51°18' W 060°36'7 7.1 1023.1
2018-Dec-05 10:00S 51°24' W 060°42'13 6.4 1023.0
2018-Dec-05 08:00S 51°30' W 061°00'0 0.0 1022.6
2018-Dec-05 07:00S 51°30' W 061°00'4 3.7 1022.2
2018-Dec-05 06:00S 51°30' W 061°06'10 9.6 1022.1
2018-Dec-05 05:00S 51°36' W 061°18'10 9.6 1021.8
2018-Dec-05 04:00S 51°42' W 061°30'1312.6 1021.7
2018-Dec-05 03:00S 51°54' W 061°36'7 7.0 1021.4
2018-Dec-05 02:00S 52°00' W 061°42'10 9.5 1021.2
2018-Dec-05 01:00S 52°06' W 061°54'1414.1 1020.3
2018-Dec-05 00:00S 52°18' W 062°06'7 7.0 1019.4
2018-Dec-04 23:00S 52°24' W 062°12'7 7.0 1019.5
2018-Dec-04 22:00S 52°30' W 062°18'1414.0 1019.1
2018-Dec-04 21:00S 52°42' W 062°30'7 7.0 1018.2
2018-Dec-04 20:00S 52°48' W 062°36'9 9.4 1017.6
2018-Dec-04 19:00S 52°54' W 062°48'1414.0 1016.7
2018-Dec-04 18:00S 53°06' W 063°00'7 7.0 1015.9
2018-Dec-04 17:00S 53°12' W 063°06'1414.0 1015.2
2018-Dec-04 16:00S 53°24' W 063°18'9 9.3 1013.9
2018-Dec-04 15:00S 53°30' W 063°30'1312.5 1013.4
2018-Dec-04 14:00S 53°42' W 063°36'9 9.3 1012.3
2018-Dec-04 13:00S 53°48' W 063°48'1413.9 1010.9
2018-Dec-04 12:00S 54°00' W 064°00'9 9.3 1009.5
2018-Dec-04 11:00S 54°06' W 064°12'1413.9 1007.3
2018-Dec-04 10:00S 54°18' W 064°24'9 9.2 1005.8
2018-Dec-04 09:00S 54°24' W 064°36'1413.9 1003.3
2018-Dec-04 08:00S 54°36' W 064°48'1413.9 1001.1
2018-Dec-04 07:00S 54°48' W 065°00'1413.8 999.1
2018-Dec-04 06:00S 55°00' W 065°12'1413.8 997.6
2018-Dec-04 05:00S 55°00' W 065°36'1211.9 996.5
2018-Dec-04 04:00S 55°06' W 065°54'1413.7 995.8
2018-Dec-04 03:00S 55°06' W 066°18'1010.3 994.8
2018-Dec-04 02:00S 55°06' W 066°36'1211.9 994.6
2018-Dec-04 01:00S 55°00' W 066°54'1515.0 994.3
2018-Dec-04 00:00S 54°54' W 067°18'1010.4 994.1
2018-Dec-03 23:00S 54°54' W 067°36'1010.4 994.1
2018-Dec-03 22:00S 54°54' W 067°54'1515.1 994.4
2018-Dec-03 21:00S 54°48' W 068°18'0 0.0 995.0
2018-Dec-03 20:00S 54°48' W 068°18'0 0.0 996.6
2018-Dec-03 19:00S 54°48' W 068°18'0 0.0 996.5
2018-Dec-03 18:00S 54°48' W 068°18'0 0.0 996.9
2018-Dec-03 17:00S 54°48' W 068°18'0 0.0 997.2
2018-Dec-03 16:00S 54°48' W 068°18'0 0.0 998.6
2018-Dec-03 15:00S 54°48' W 068°18'0 0.0 1000.4
2018-Dec-03 14:00S 54°48' W 068°18'0 0.0 1001.9
2018-Dec-03 13:00S 54°48' W 068°18'   1003.4

Dump ship's entire track history